<?xml version='1.0' encoding='UTF-8'?><gpx version="1.1" creator="JPX - https://github.com/jenetics/jpx" xmlns="http://www.topografix.com/GPX/1/1"><trk><trkseg><trkpt lat="43.19030097126919" lon="13.79432831603398"><ele>1.9999999999999998</ele><time>2026-04-06T08:57:40.999Z</time></trkpt><trkpt lat="43.19036596518976" lon="13.794280239503458"><ele>2.0</ele><time>2026-04-06T08:57:44.999Z</time></trkpt><trkpt lat="43.19042153498335" lon="13.79423176565621"><ele>2.0</ele><time>2026-04-06T08:57:47.999Z</time></trkpt><trkpt lat="43.19050305404008" lon="13.794188051164967"><ele>2.0</ele><time>2026-04-06T08:57:50.999Z</time></trkpt><trkpt lat="43.19058172688316" lon="13.794149242971653"><ele>1.9999999999999998</ele><time>2026-04-06T08:57:53.999Z</time></trkpt><trkpt lat="43.190648956127184" lon="13.794117964691917"><ele>2.0</ele><time>2026-04-06T08:57:56.999Z</time></trkpt><trkpt lat="43.190731231939104" lon="13.794079412069982"><ele>1.8333333333333333</ele><time>2026-04-06T08:57:59.999Z</time></trkpt><trkpt lat="43.19079141832957" lon="13.794048865490097"><ele>1.6666666666666665</ele><time>2026-04-06T08:58:01.999Z</time></trkpt><trkpt lat="43.19085978865465" lon="13.79401375750204"><ele>1.5</ele><time>2026-04-06T08:58:03.999Z</time></trkpt><trkpt lat="43.19093457345964" lon="13.793967529969418"><ele>1.3333333333333333</ele><time>2026-04-06T08:58:05.999Z</time></trkpt><trkpt lat="43.19101594333862" lon="13.793931646302656"><ele>1.1666666666666665</ele><time>2026-04-06T08:58:07.999Z</time></trkpt><trkpt lat="43.19110152237634" lon="13.793903387585884"><ele>1.0</ele><time>2026-04-06T08:58:09.999Z</time></trkpt><trkpt lat="43.19118082972476" lon="13.793858717703406"><ele>0.9999999999999999</ele><time>2026-04-06T08:58:11.999Z</time></trkpt><trkpt lat="43.191265007145155" lon="13.793827837759002"><ele>1.0</ele><time>2026-04-06T08:58:13.999Z</time></trkpt><trkpt lat="43.19134429698988" lon="13.793784301438253"><ele>1.0</ele><time>2026-04-06T08:58:15.999Z</time></trkpt><trkpt lat="43.191427961498796" lon="13.793746305665579"><ele>1.0</ele><time>2026-04-06T08:58:17.999Z</time></trkpt><trkpt lat="43.191510712494875" lon="13.793711078149855"><ele>0.9999999999999999</ele><time>2026-04-06T08:58:19.999Z</time></trkpt><trkpt lat="43.191590735366724" lon="13.793669338658999"><ele>1.0</ele><time>2026-04-06T08:58:21.999Z</time></trkpt><trkpt lat="43.191667535476846" lon="13.793632492133804"><ele>1.1666666666666665</ele><time>2026-04-06T08:58:23.999Z</time></trkpt><trkpt lat="43.19175177038113" lon="13.79359146034015"><ele>1.3333333333333333</ele><time>2026-04-06T08:58:25.999Z</time></trkpt><trkpt lat="43.19183392044615" lon="13.79355053903183"><ele>1.5</ele><time>2026-04-06T08:58:27.999Z</time></trkpt><trkpt lat="43.19191541463713" lon="13.793513158956166"><ele>1.6666666666666665</ele><time>2026-04-06T08:58:29.999Z</time></trkpt><trkpt lat="43.191993138937995" lon="13.79347277138108"><ele>1.8333333333333333</ele><time>2026-04-06T08:58:31.999Z</time></trkpt><trkpt lat="43.19207290060643" lon="13.7934321161392"><ele>2.0</ele><time>2026-04-06T08:58:33.999Z</time></trkpt><trkpt lat="43.19215239212898" lon="13.793398506966003"><ele>1.8333333333333333</ele><time>2026-04-06T08:58:35.999Z</time></trkpt><trkpt lat="43.192229191276795" lon="13.793362184406629"><ele>1.6666666666666665</ele><time>2026-04-06T08:58:37.999Z</time></trkpt><trkpt lat="43.192307297473015" lon="13.793326009790885"><ele>1.5</ele><time>2026-04-06T08:58:39.999Z</time></trkpt><trkpt lat="43.19239122639654" lon="13.793286509888913"><ele>1.3333333333333333</ele><time>2026-04-06T08:58:41.999Z</time></trkpt><trkpt lat="43.192476912486505" lon="13.793250988305914"><ele>1.1666666666666665</ele><time>2026-04-06T08:58:43.999Z</time></trkpt><trkpt lat="43.19256223026547" lon="13.793213919950492"><ele>1.0</ele><time>2026-04-06T08:58:45.999Z</time></trkpt><trkpt lat="43.19264398246496" lon="13.7931723629063"><ele>0.9999999999999999</ele><time>2026-04-06T08:58:47.999Z</time></trkpt><trkpt lat="43.19272867037722" lon="13.793136170218691"><ele>1.0</ele><time>2026-04-06T08:58:49.999Z</time></trkpt><trkpt lat="43.192808999485244" lon="13.793095190194187"><ele>1.0</ele><time>2026-04-06T08:58:51.999Z</time></trkpt><trkpt lat="43.19289490175308" lon="13.793056301823274"><ele>1.0</ele><time>2026-04-06T08:58:53.999Z</time></trkpt><trkpt lat="43.1929773013594" lon="13.793016863298105"><ele>0.9999999999999999</ele><time>2026-04-06T08:58:55.999Z</time></trkpt><trkpt lat="43.193057508255464" lon="13.7929777378859"><ele>1.0</ele><time>2026-04-06T08:58:57.999Z</time></trkpt><trkpt lat="43.193141108856004" lon="13.792942363079558"><ele>0.8</ele><time>2026-04-06T08:58:59.999Z</time></trkpt><trkpt lat="43.19322576181769" lon="13.792906027687097"><ele>0.6000000000000001</ele><time>2026-04-06T08:59:01.998Z</time></trkpt><trkpt lat="43.1933119335878" lon="13.792865212817732"><ele>0.4</ele><time>2026-04-06T08:59:03.998Z</time></trkpt><trkpt lat="43.19339510915746" lon="13.792818054264298"><ele>0.2</ele><time>2026-04-06T08:59:05.998Z</time></trkpt><trkpt lat="43.19348259164378" lon="13.792780328848417"><ele>0.0</ele><time>2026-04-06T08:59:07.999Z</time></trkpt><trkpt lat="43.193570564116115" lon="13.792742900540906"><ele>0.0</ele><time>2026-04-06T08:59:09.999Z</time></trkpt><trkpt lat="43.19365610663649" lon="13.792704155825806"><ele>0.0</ele><time>2026-04-06T08:59:11.999Z</time></trkpt><trkpt lat="43.19374186858745" lon="13.79266082988593"><ele>0.0</ele><time>2026-04-06T08:59:13.999Z</time></trkpt><trkpt lat="43.19383181801071" lon="13.792616986670131"><ele>0.0</ele><time>2026-04-06T08:59:15.999Z</time></trkpt><trkpt lat="43.19392512329601" lon="13.79257475440559"><ele>0.0</ele><time>2026-04-06T08:59:17.999Z</time></trkpt><trkpt lat="43.194023927841656" lon="13.792524175131522"><ele>0.2</ele><time>2026-04-06T08:59:19.999Z</time></trkpt><trkpt lat="43.19411956925367" lon="13.792488948147362"><ele>0.4</ele><time>2026-04-06T08:59:21.999Z</time></trkpt><trkpt lat="43.194217096167435" lon="13.792439879379598"><ele>0.6000000000000001</ele><time>2026-04-06T08:59:23.999Z</time></trkpt><trkpt lat="43.194314420477376" lon="13.792398898740222"><ele>0.8</ele><time>2026-04-06T08:59:25.999Z</time></trkpt><trkpt lat="43.194409563946685" lon="13.792352543114415"><ele>1.0</ele><time>2026-04-06T08:59:27.999Z</time></trkpt><trkpt lat="43.19450793453924" lon="13.792309553919251"><ele>1.0</ele><time>2026-04-06T08:59:29.999Z</time></trkpt><trkpt lat="43.19460313051195" lon="13.792265959039995"><ele>1.0</ele><time>2026-04-06T08:59:31.999Z</time></trkpt><trkpt lat="43.19469545585108" lon="13.792228029287974"><ele>1.0</ele><time>2026-04-06T08:59:33.999Z</time></trkpt><trkpt lat="43.19478836689269" lon="13.792186191182735"><ele>1.0</ele><time>2026-04-06T08:59:35.999Z</time></trkpt><trkpt lat="43.194880372003524" lon="13.792148335955646"><ele>1.0</ele><time>2026-04-06T08:59:37.999Z</time></trkpt><trkpt lat="43.19497497702653" lon="13.792116491041652"><ele>1.2000000000000002</ele><time>2026-04-06T08:59:39.999Z</time></trkpt><trkpt lat="43.195065521709786" lon="13.792070582064227"><ele>1.4000000000000001</ele><time>2026-04-06T08:59:41.999Z</time></trkpt><trkpt lat="43.19515990860049" lon="13.792032588586004"><ele>1.6</ele><time>2026-04-06T08:59:43.999Z</time></trkpt><trkpt lat="43.19524842881668" lon="13.791984826361938"><ele>1.8</ele><time>2026-04-06T08:59:46Z</time></trkpt><trkpt lat="43.195340327792195" lon="13.791954649407568"><ele>2.0</ele><time>2026-04-06T08:59:48Z</time></trkpt><trkpt lat="43.19543217567984" lon="13.791919003693788"><ele>1.9999999999999998</ele><time>2026-04-06T08:59:50Z</time></trkpt><trkpt lat="43.1955203769839" lon="13.791874337833477"><ele>2.0</ele><time>2026-04-06T08:59:52Z</time></trkpt><trkpt lat="43.19558565775352" lon="13.791862200409561"><ele>2.0</ele><time>2026-04-06T08:59:53Z</time></trkpt><trkpt lat="43.19566460511245" lon="13.791816690810377"><ele>2.0</ele><time>2026-04-06T08:59:55Z</time></trkpt><trkpt lat="43.19575957088214" lon="13.791780728224536"><ele>1.9999999999999998</ele><time>2026-04-06T08:59:57Z</time></trkpt><trkpt lat="43.195854030353075" lon="13.791744799080881"><ele>2.0</ele><time>2026-04-06T08:59:59Z</time></trkpt><trkpt lat="43.19591702729543" lon="13.791730614233048"><ele>1.6</ele><time>2026-04-06T09:00:00Z</time></trkpt><trkpt lat="43.19599731145631" lon="13.791690276328858"><ele>1.2000000000000002</ele><time>2026-04-06T09:00:02Z</time></trkpt><trkpt lat="43.196088977440084" lon="13.791655429711094"><ele>0.8</ele><time>2026-04-06T09:00:04Z</time></trkpt><trkpt lat="43.196184676397344" lon="13.791623893002331"><ele>0.4</ele><time>2026-04-06T09:00:06Z</time></trkpt><trkpt lat="43.19627602318169" lon="13.791582631697228"><ele>0.0</ele><time>2026-04-06T09:00:08Z</time></trkpt><trkpt lat="43.19636913467884" lon="13.791549991940673"><ele>0.0</ele><time>2026-04-06T09:00:10Z</time></trkpt><trkpt lat="43.19646016864872" lon="13.791527429716231"><ele>0.0</ele><time>2026-04-06T09:00:12Z</time></trkpt><trkpt lat="43.19653483057208" lon="13.79148802498123"><ele>0.0</ele><time>2026-04-06T09:00:14Z</time></trkpt><trkpt lat="43.1966180077363" lon="13.791460783508995"><ele>0.0</ele><time>2026-04-06T09:00:16Z</time></trkpt><trkpt lat="43.19669075706505" lon="13.791434982079016"><ele>0.0</ele><time>2026-04-06T09:00:18Z</time></trkpt><trkpt lat="43.19676402432696" lon="13.791408849091583"><ele>0.0</ele><time>2026-04-06T09:00:20Z</time></trkpt><trkpt lat="43.19683528098617" lon="13.791369299374104"><ele>0.16666666666666666</ele><time>2026-04-06T09:00:22Z</time></trkpt><trkpt lat="43.19690647526679" lon="13.791343682421921"><ele>0.3333333333333333</ele><time>2026-04-06T09:00:24Z</time></trkpt><trkpt lat="43.196967805752664" lon="13.791304771143958"><ele>0.5</ele><time>2026-04-06T09:00:26Z</time></trkpt><trkpt lat="43.197042984378086" lon="13.791235204415255"><ele>0.6666666666666666</ele><time>2026-04-06T09:00:29Z</time></trkpt><trkpt lat="43.1970572574342" lon="13.791134278188338"><ele>0.8333333333333333</ele><time>2026-04-06T09:00:31Z</time></trkpt><trkpt lat="43.1970390364959" lon="13.791026072248151"><ele>1.0</ele><time>2026-04-06T09:00:33Z</time></trkpt><trkpt lat="43.19698324683975" lon="13.79091668791293"><ele>1.0</ele><time>2026-04-06T09:00:35Z</time></trkpt><trkpt lat="43.19693721343693" lon="13.790789856337364"><ele>1.0</ele><time>2026-04-06T09:00:37Z</time></trkpt><trkpt lat="43.19690018238073" lon="13.790654037803394"><ele>1.0</ele><time>2026-04-06T09:00:39Z</time></trkpt><trkpt lat="43.196865533655895" lon="13.790524684468116"><ele>1.0</ele><time>2026-04-06T09:00:41Z</time></trkpt><trkpt lat="43.196827007778786" lon="13.790398748969768"><ele>1.0</ele><time>2026-04-06T09:00:43Z</time></trkpt><trkpt lat="43.19678718268791" lon="13.790270733955108"><ele>0.8</ele><time>2026-04-06T09:00:45Z</time></trkpt><trkpt lat="43.1967528131151" lon="13.7901504531767"><ele>0.6000000000000001</ele><time>2026-04-06T09:00:47Z</time></trkpt><trkpt lat="43.196720331033546" lon="13.790026547541483"><ele>0.4</ele><time>2026-04-06T09:00:49Z</time></trkpt><trkpt lat="43.19668890875597" lon="13.789899291585046"><ele>0.2</ele><time>2026-04-06T09:00:51Z</time></trkpt><trkpt lat="43.19664400830635" lon="13.78975794478269"><ele>0.0</ele><time>2026-04-06T09:00:53Z</time></trkpt><trkpt lat="43.196620542744334" lon="13.789674247637134"><ele>0.0</ele><time>2026-04-06T09:00:54Z</time></trkpt><trkpt lat="43.19659401455756" lon="13.789585830504558"><ele>0.0</ele><time>2026-04-06T09:00:55Z</time></trkpt><trkpt lat="43.1965629641539" lon="13.789496142759777"><ele>0.0</ele><time>2026-04-06T09:00:56Z</time></trkpt><trkpt lat="43.19653627127606" lon="13.789396278137035"><ele>0.0</ele><time>2026-04-06T09:00:57Z</time></trkpt><trkpt lat="43.19650921960539" lon="13.789288735193802"><ele>0.0</ele><time>2026-04-06T09:00:58Z</time></trkpt><trkpt lat="43.19647365260483" lon="13.789181636994911"><ele>0.0</ele><time>2026-04-06T09:00:59Z</time></trkpt><trkpt lat="43.196438952716676" lon="13.789066623052932"><ele>0.3333333333333333</ele><time>2026-04-06T09:01:00Z</time></trkpt><trkpt lat="43.19640104160861" lon="13.788942193110575"><ele>0.6666666666666666</ele><time>2026-04-06T09:01:01Z</time></trkpt><trkpt lat="43.19637972724197" lon="13.788858231447433"><ele>1.0</ele><time>2026-04-06T09:01:02Z</time></trkpt><trkpt lat="43.1963528840175" lon="13.788771899677384"><ele>1.3333333333333333</ele><time>2026-04-06T09:01:03Z</time></trkpt><trkpt lat="43.1963130939661" lon="13.788620853862929"><ele>1.6666666666666665</ele><time>2026-04-06T09:01:05Z</time></trkpt><trkpt lat="43.196275794321885" lon="13.788498219109707"><ele>2.0</ele><time>2026-04-06T09:01:07Z</time></trkpt><trkpt lat="43.19624112200737" lon="13.78838315783799"><ele>2.0</ele><time>2026-04-06T09:01:09Z</time></trkpt><trkpt lat="43.19621445258116" lon="13.788278188185744"><ele>2.0</ele><time>2026-04-06T09:01:11Z</time></trkpt><trkpt lat="43.196179231708236" lon="13.788157838962224"><ele>2.0</ele><time>2026-04-06T09:01:13Z</time></trkpt><trkpt lat="43.19614759702663" lon="13.788030851257135"><ele>2.0</ele><time>2026-04-06T09:01:15Z</time></trkpt><trkpt lat="43.196137135469115" lon="13.787893846863007"><ele>2.0</ele><time>2026-04-06T09:01:17Z</time></trkpt><trkpt lat="43.1961194713751" lon="13.787757044036589"><ele>2.2</ele><time>2026-04-06T09:01:19Z</time></trkpt><trkpt lat="43.196080911626964" lon="13.787632082472017"><ele>2.4000000000000004</ele><time>2026-04-06T09:01:21Z</time></trkpt><trkpt lat="43.19605437065456" lon="13.787507798178243"><ele>2.5999999999999996</ele><time>2026-04-06T09:01:23Z</time></trkpt><trkpt lat="43.19601518583402" lon="13.787391431869578"><ele>2.8</ele><time>2026-04-06T09:01:25Z</time></trkpt><trkpt lat="43.19597736226899" lon="13.787267084463236"><ele>3.0</ele><time>2026-04-06T09:01:27Z</time></trkpt><trkpt lat="43.19593921849658" lon="13.787140266422126"><ele>3.0</ele><time>2026-04-06T09:01:29Z</time></trkpt><trkpt lat="43.19590662338569" lon="13.787016844561222"><ele>3.0</ele><time>2026-04-06T09:01:31Z</time></trkpt><trkpt lat="43.195866603894096" lon="13.78689992255915"><ele>3.0</ele><time>2026-04-06T09:01:33Z</time></trkpt><trkpt lat="43.19588822565749" lon="13.786758934975998"><ele>3.0</ele><time>2026-04-06T09:01:35Z</time></trkpt><trkpt lat="43.195937092164556" lon="13.786645842914632"><ele>3.0</ele><time>2026-04-06T09:01:37Z</time></trkpt><trkpt lat="43.196007451903235" lon="13.786547486184404"><ele>3.0</ele><time>2026-04-06T09:01:39Z</time></trkpt><trkpt lat="43.196093817014955" lon="13.786487780493983"><ele>3.0</ele><time>2026-04-06T09:01:41Z</time></trkpt><trkpt lat="43.196188254040564" lon="13.786450154559168"><ele>3.0</ele><time>2026-04-06T09:01:43Z</time></trkpt><trkpt lat="43.19627242093375" lon="13.786390417975293"><ele>3.0</ele><time>2026-04-06T09:01:45Z</time></trkpt><trkpt lat="43.1963636680031" lon="13.786327764626588"><ele>3.0</ele><time>2026-04-06T09:01:47Z</time></trkpt><trkpt lat="43.19645736869976" lon="13.786282787624318"><ele>3.0</ele><time>2026-04-06T09:01:49Z</time></trkpt><trkpt lat="43.196552950273706" lon="13.78623891287156"><ele>3.0</ele><time>2026-04-06T09:01:51Z</time></trkpt><trkpt lat="43.19664641639247" lon="13.786191055296166"><ele>3.0</ele><time>2026-04-06T09:01:53Z</time></trkpt><trkpt lat="43.196735213725" lon="13.78614876402261"><ele>3.0</ele><time>2026-04-06T09:01:55Z</time></trkpt><trkpt lat="43.19682579675497" lon="13.78609534529589"><ele>3.0</ele><time>2026-04-06T09:01:57Z</time></trkpt><trkpt lat="43.19691864906561" lon="13.786053093475374"><ele>3.4</ele><time>2026-04-06T09:01:59Z</time></trkpt><trkpt lat="43.197007609172026" lon="13.78600254484871"><ele>3.8</ele><time>2026-04-06T09:02:01Z</time></trkpt><trkpt lat="43.19709349448085" lon="13.785952689073923"><ele>4.2</ele><time>2026-04-06T09:02:03Z</time></trkpt><trkpt lat="43.19717963533974" lon="13.785899521732642"><ele>4.6</ele><time>2026-04-06T09:02:05Z</time></trkpt><trkpt lat="43.19726736059605" lon="13.785852657221065"><ele>5.0</ele><time>2026-04-06T09:02:07Z</time></trkpt><trkpt lat="43.197357676283225" lon="13.785806991441031"><ele>5.0</ele><time>2026-04-06T09:02:09Z</time></trkpt><trkpt lat="43.19744322486949" lon="13.785761741077293"><ele>5.0</ele><time>2026-04-06T09:02:11Z</time></trkpt><trkpt lat="43.19752691126765" lon="13.785715331486015"><ele>5.0</ele><time>2026-04-06T09:02:13Z</time></trkpt><trkpt lat="43.197610164500624" lon="13.785680610354955"><ele>5.0</ele><time>2026-04-06T09:02:15Z</time></trkpt><trkpt lat="43.197688759144434" lon="13.785644597152315"><ele>5.0</ele><time>2026-04-06T09:02:17Z</time></trkpt><trkpt lat="43.197763246789755" lon="13.78560538337543"><ele>5.0</ele><time>2026-04-06T09:02:19Z</time></trkpt><trkpt lat="43.19783667624258" lon="13.785573351965386"><ele>5.0</ele><time>2026-04-06T09:02:21Z</time></trkpt><trkpt lat="43.19790875107003" lon="13.785532739302752"><ele>5.0</ele><time>2026-04-06T09:02:23Z</time></trkpt><trkpt lat="43.19797539748442" lon="13.785486626764373"><ele>5.0</ele><time>2026-04-06T09:02:25Z</time></trkpt><trkpt lat="43.19804424967446" lon="13.78543360019823"><ele>5.0</ele><time>2026-04-06T09:02:27Z</time></trkpt><trkpt lat="43.19812092446822" lon="13.785386252446148"><ele>5.0</ele><time>2026-04-06T09:02:29Z</time></trkpt><trkpt lat="43.198192893917266" lon="13.785311262271048"><ele>5.0</ele><time>2026-04-06T09:02:31Z</time></trkpt><trkpt lat="43.19823840518352" lon="13.785243048105226"><ele>5.166666666666667</ele><time>2026-04-06T09:02:33Z</time></trkpt><trkpt lat="43.19827270151958" lon="13.78515473524174"><ele>5.333333333333334</ele><time>2026-04-06T09:02:35Z</time></trkpt><trkpt lat="43.1982890789162" lon="13.785051845287427"><ele>5.5</ele><time>2026-04-06T09:02:41Z</time></trkpt><trkpt lat="43.19828222192494" lon="13.784941459686785"><ele>5.666666666666667</ele><time>2026-04-06T09:02:44Z</time></trkpt><trkpt lat="43.19828532721347" lon="13.784830033290616"><ele>5.833333333333333</ele><time>2026-04-06T09:02:47Z</time></trkpt><trkpt lat="43.19831030919192" lon="13.78472602793113"><ele>6.0</ele><time>2026-04-06T09:02:50Z</time></trkpt><trkpt lat="43.19834755444637" lon="13.784633971906482"><ele>6.0</ele><time>2026-04-06T09:02:53Z</time></trkpt><trkpt lat="43.198338895060516" lon="13.784507867452932"><ele>6.0</ele><time>2026-04-06T09:02:56Z</time></trkpt><trkpt lat="43.19833361092522" lon="13.78438586152181"><ele>6.0</ele><time>2026-04-06T09:02:59Z</time></trkpt><trkpt lat="43.198324364767885" lon="13.784261719560503"><ele>6.0</ele><time>2026-04-06T09:03:02Z</time></trkpt><trkpt lat="43.198322066714084" lon="13.784143915377715"><ele>6.0</ele><time>2026-04-06T09:03:05Z</time></trkpt><trkpt lat="43.19832047133087" lon="13.784028249398826"><ele>6.0</ele><time>2026-04-06T09:03:08Z</time></trkpt><trkpt lat="43.19831975971479" lon="13.783916479861283"><ele>6.833333333333333</ele><time>2026-04-06T09:03:11Z</time></trkpt><trkpt lat="43.19831343996596" lon="13.783799568005305"><ele>7.666666666666666</ele><time>2026-04-06T09:03:14.001Z</time></trkpt><trkpt lat="43.19830856977024" lon="13.78368525233575"><ele>8.5</ele><time>2026-04-06T09:03:17.001Z</time></trkpt><trkpt lat="43.19830736937017" lon="13.783573175832833"><ele>9.333333333333332</ele><time>2026-04-06T09:03:20.001Z</time></trkpt><trkpt lat="43.198302470952704" lon="13.783456598271952"><ele>10.166666666666666</ele><time>2026-04-06T09:03:23.001Z</time></trkpt><trkpt lat="43.19829691343073" lon="13.783344723749813"><ele>11.0</ele><time>2026-04-06T09:03:26.001Z</time></trkpt><trkpt lat="43.19830391606234" lon="13.783235197586547"><ele>11.666666666666666</ele><time>2026-04-06T09:03:29Z</time></trkpt><trkpt lat="43.198307551439804" lon="13.783124537360997"><ele>12.333333333333332</ele><time>2026-04-06T09:03:32Z</time></trkpt><trkpt lat="43.198306729830115" lon="13.783006842883525"><ele>13.0</ele><time>2026-04-06T09:03:35Z</time></trkpt><trkpt lat="43.198300142938656" lon="13.782894884178832"><ele>13.666666666666666</ele><time>2026-04-06T09:03:38Z</time></trkpt><trkpt lat="43.198292692406596" lon="13.782788851656045"><ele>14.333333333333334</ele><time>2026-04-06T09:03:41Z</time></trkpt><trkpt lat="43.198301712896814" lon="13.782680594777096"><ele>15.0</ele><time>2026-04-06T09:03:44Z</time></trkpt><trkpt lat="43.198298468423324" lon="13.782573351193617"><ele>15.833333333333334</ele><time>2026-04-06T09:03:47Z</time></trkpt><trkpt lat="43.19829344685596" lon="13.782463049321212"><ele>16.666666666666668</ele><time>2026-04-06T09:03:50Z</time></trkpt><trkpt lat="43.19829654696021" lon="13.782359067555943"><ele>17.5</ele><time>2026-04-06T09:03:53Z</time></trkpt><trkpt lat="43.19828213556033" lon="13.782237898296877"><ele>18.333333333333336</ele><time>2026-04-06T09:03:56Z</time></trkpt><trkpt lat="43.19826641012784" lon="13.782137195752293"><ele>19.166666666666668</ele><time>2026-04-06T09:03:59Z</time></trkpt><trkpt lat="43.19825514986168" lon="13.78204993528018"><ele>20.0</ele><time>2026-04-06T09:04:02Z</time></trkpt><trkpt lat="43.19823058261142" lon="13.781953067893525"><ele>20.0</ele><time>2026-04-06T09:04:05Z</time></trkpt><trkpt lat="43.19820476881803" lon="13.781848812825965"><ele>20.0</ele><time>2026-04-06T09:04:08Z</time></trkpt><trkpt lat="43.19818876628395" lon="13.78174879914547"><ele>20.0</ele><time>2026-04-06T09:04:11Z</time></trkpt><trkpt lat="43.19817928728394" lon="13.781650279435189"><ele>20.0</ele><time>2026-04-06T09:04:15Z</time></trkpt><trkpt lat="43.198121293524466" lon="13.781588121247387"><ele>20.0</ele><time>2026-04-06T09:04:18Z</time></trkpt><trkpt lat="43.19811099210994" lon="13.781495833788792"><ele>20.0</ele><time>2026-04-06T09:04:21Z</time></trkpt><trkpt lat="43.19818115252693" lon="13.781442705779797"><ele>20.0</ele><time>2026-04-06T09:04:24Z</time></trkpt><trkpt lat="43.19824432728285" lon="13.781392081409178"><ele>20.714285714285715</ele><time>2026-04-06T09:04:27Z</time></trkpt><trkpt lat="43.19830867859875" lon="13.781359272281035"><ele>21.42857142857143</ele><time>2026-04-06T09:04:30Z</time></trkpt><trkpt lat="43.198367807809326" lon="13.781309867164136"><ele>22.142857142857146</ele><time>2026-04-06T09:04:33Z</time></trkpt><trkpt lat="43.198411934475935" lon="13.781239695161654"><ele>22.857142857142858</ele><time>2026-04-06T09:04:36Z</time></trkpt><trkpt lat="43.19843281254459" lon="13.781145164483183"><ele>23.571428571428573</ele><time>2026-04-06T09:04:39Z</time></trkpt><trkpt lat="43.19846222007223" lon="13.781056551005372"><ele>24.28571428571429</ele><time>2026-04-06T09:04:42Z</time></trkpt><trkpt lat="43.19850044869064" lon="13.780974136871514"><ele>25.0</ele><time>2026-04-06T09:04:45Z</time></trkpt><trkpt lat="43.19854972588811" lon="13.780911830272014"><ele>26.333333333333336</ele><time>2026-04-06T09:04:48Z</time></trkpt><trkpt lat="43.1986065680167" lon="13.780849513150484"><ele>27.666666666666668</ele><time>2026-04-06T09:04:51Z</time></trkpt><trkpt lat="43.19868274057824" lon="13.780808704310694"><ele>29.0</ele><time>2026-04-06T09:04:54Z</time></trkpt><trkpt lat="43.19877086675241" lon="13.780806094436837"><ele>30.333333333333336</ele><time>2026-04-06T09:04:57Z</time></trkpt><trkpt lat="43.19883512067699" lon="13.780804376039187"><ele>31.666666666666668</ele><time>2026-04-06T09:04:59Z</time></trkpt><trkpt lat="43.19892472874904" lon="13.780801002453606"><ele>33.0</ele><time>2026-04-06T09:05:02Z</time></trkpt><trkpt lat="43.19899231846637" lon="13.780800548037329"><ele>32.714285714285715</ele><time>2026-04-06T09:05:04Z</time></trkpt><trkpt lat="43.19905576659762" lon="13.78078845431345"><ele>32.42857142857143</ele><time>2026-04-06T09:05:06Z</time></trkpt><trkpt lat="43.19912037307037" lon="13.780781189459274"><ele>32.142857142857146</ele><time>2026-04-06T09:05:08Z</time></trkpt><trkpt lat="43.199183869557665" lon="13.780785990544528"><ele>31.857142857142858</ele><time>2026-04-06T09:05:10Z</time></trkpt><trkpt lat="43.19925299190402" lon="13.780781344403097"><ele>31.571428571428577</ele><time>2026-04-06T09:05:12Z</time></trkpt><trkpt lat="43.199314587394" lon="13.780737878268228"><ele>31.28571428571429</ele><time>2026-04-06T09:05:14Z</time></trkpt><trkpt lat="43.199360661642416" lon="13.78066047047181"><ele>31.0</ele><time>2026-04-06T09:05:16Z</time></trkpt><trkpt lat="43.19934092976885" lon="13.780562219860728"><ele>31.000000000000004</ele><time>2026-04-06T09:05:19.001Z</time></trkpt><trkpt lat="43.19933940650735" lon="13.780462529504225"><ele>31.0</ele><time>2026-04-06T09:05:22.001Z</time></trkpt><trkpt lat="43.19932570049646" lon="13.78036883365371"><ele>31.0</ele><time>2026-04-06T09:05:25.001Z</time></trkpt><trkpt lat="43.1993236964928" lon="13.780281994392732"><ele>31.0</ele><time>2026-04-06T09:05:28.001Z</time></trkpt><trkpt lat="43.199323129084156" lon="13.780168805135022"><ele>31.000000000000004</ele><time>2026-04-06T09:05:32.001Z</time></trkpt><trkpt lat="43.19932793549934" lon="13.780054459579853"><ele>31.0</ele><time>2026-04-06T09:05:36Z</time></trkpt><trkpt lat="43.19931908952105" lon="13.779940042757433"><ele>32.333333333333336</ele><time>2026-04-06T09:05:40Z</time></trkpt><trkpt lat="43.199354686966835" lon="13.779840927745552"><ele>33.66666666666667</ele><time>2026-04-06T09:05:44Z</time></trkpt><trkpt lat="43.19941832213255" lon="13.779812334773471"><ele>35.0</ele><time>2026-04-06T09:05:47Z</time></trkpt><trkpt lat="43.199491732007324" lon="13.779779120747477"><ele>36.333333333333336</ele><time>2026-04-06T09:05:50Z</time></trkpt><trkpt lat="43.19956668568042" lon="13.779741767834114"><ele>37.666666666666664</ele><time>2026-04-06T09:05:53Z</time></trkpt><trkpt lat="43.19964905132915" lon="13.779702768424912"><ele>39.0</ele><time>2026-04-06T09:05:56Z</time></trkpt><trkpt lat="43.19973072981378" lon="13.77966608325008"><ele>39.0</ele><time>2026-04-06T09:05:59Z</time></trkpt><trkpt lat="43.199802195358956" lon="13.779612342668832"><ele>39.0</ele><time>2026-04-06T09:06:02Z</time></trkpt><trkpt lat="43.199865493987836" lon="13.77956125093806"><ele>39.0</ele><time>2026-04-06T09:06:05Z</time></trkpt><trkpt lat="43.19987607422829" lon="13.779448435618555"><ele>39.0</ele><time>2026-04-06T09:06:08Z</time></trkpt><trkpt lat="43.19986274571375" lon="13.779342817064808"><ele>39.0</ele><time>2026-04-06T09:06:12Z</time></trkpt><trkpt lat="43.199854839219476" lon="13.779244611850935"><ele>39.0</ele><time>2026-04-06T09:06:16Z</time></trkpt><trkpt lat="43.19985179526308" lon="13.779153540142579"><ele>40.166666666666664</ele><time>2026-04-06T09:06:20Z</time></trkpt><trkpt lat="43.199928218226646" lon="13.779129909941368"><ele>41.333333333333336</ele><time>2026-04-06T09:06:23Z</time></trkpt><trkpt lat="43.200009980441266" lon="13.779113466461252"><ele>42.5</ele><time>2026-04-06T09:06:26Z</time></trkpt><trkpt lat="43.200103735974004" lon="13.77909766876261"><ele>43.66666666666667</ele><time>2026-04-06T09:06:29Z</time></trkpt><trkpt lat="43.20019567648461" lon="13.779083140050771"><ele>44.833333333333336</ele><time>2026-04-06T09:06:32Z</time></trkpt><trkpt lat="43.200259401657334" lon="13.779077764101464"><ele>46.0</ele><time>2026-04-06T09:06:34Z</time></trkpt><trkpt lat="43.2003261099113" lon="13.779068702071298"><ele>46.0</ele><time>2026-04-06T09:06:36Z</time></trkpt><trkpt lat="43.20039526007096" lon="13.779054577731083"><ele>46.0</ele><time>2026-04-06T09:06:38Z</time></trkpt><trkpt lat="43.20046496190972" lon="13.779056403398096"><ele>46.0</ele><time>2026-04-06T09:06:40Z</time></trkpt><trkpt lat="43.20054199919335" lon="13.77905300888006"><ele>46.0</ele><time>2026-04-06T09:06:42Z</time></trkpt><trkpt lat="43.200622764857165" lon="13.779055405607506"><ele>46.0</ele><time>2026-04-06T09:06:44Z</time></trkpt><trkpt lat="43.20070512481173" lon="13.779051129516251"><ele>46.0</ele><time>2026-04-06T09:06:46Z</time></trkpt><trkpt lat="43.20078870576896" lon="13.779052633390185"><ele>45.4</ele><time>2026-04-06T09:06:48Z</time></trkpt><trkpt lat="43.200872115065714" lon="13.779044121974676"><ele>44.8</ele><time>2026-04-06T09:06:50Z</time></trkpt><trkpt lat="43.20096336405729" lon="13.779037699938607"><ele>44.199999999999996</ele><time>2026-04-06T09:06:52Z</time></trkpt><trkpt lat="43.201049635987495" lon="13.77903523105088"><ele>43.599999999999994</ele><time>2026-04-06T09:06:54Z</time></trkpt><trkpt lat="43.20114659732373" lon="13.779040102724194"><ele>43.0</ele><time>2026-04-06T09:06:56Z</time></trkpt><trkpt lat="43.201239942259754" lon="13.779039228273065"><ele>43.0</ele><time>2026-04-06T09:06:58Z</time></trkpt><trkpt lat="43.201325979372406" lon="13.779034503035064"><ele>43.0</ele><time>2026-04-06T09:07:00Z</time></trkpt><trkpt lat="43.201413051380435" lon="13.779021927910586"><ele>43.0</ele><time>2026-04-06T09:07:02Z</time></trkpt><trkpt lat="43.201489432458786" lon="13.77900218552569"><ele>43.0</ele><time>2026-04-06T09:07:04Z</time></trkpt><trkpt lat="43.20155173595593" lon="13.778966325130888"><ele>43.0</ele><time>2026-04-06T09:07:06Z</time></trkpt><trkpt lat="43.20162846505809" lon="13.77891667099722"><ele>43.0</ele><time>2026-04-06T09:07:09Z</time></trkpt><trkpt lat="43.20167871789402" lon="13.778856966752077"><ele>42.333333333333336</ele><time>2026-04-06T09:07:11Z</time></trkpt><trkpt lat="43.20174261705373" lon="13.778764025135784"><ele>41.66666666666667</ele><time>2026-04-06T09:07:14Z</time></trkpt><trkpt lat="43.201781612689935" lon="13.778688819828654"><ele>41.0</ele><time>2026-04-06T09:07:16Z</time></trkpt><trkpt lat="43.201817802109666" lon="13.778609865383604"><ele>40.333333333333336</ele><time>2026-04-06T09:07:18Z</time></trkpt><trkpt lat="43.20187747123518" lon="13.778497570101521"><ele>39.666666666666664</ele><time>2026-04-06T09:07:21Z</time></trkpt><trkpt lat="43.201926544389536" lon="13.778396834290087"><ele>39.0</ele><time>2026-04-06T09:07:23Z</time></trkpt><trkpt lat="43.201980457511986" lon="13.778333964030727"><ele>41.166666666666664</ele><time>2026-04-06T09:07:25Z</time></trkpt><trkpt lat="43.20201837388872" lon="13.778228077025783"><ele>43.33333333333333</ele><time>2026-04-06T09:07:27Z</time></trkpt><trkpt lat="43.20206237465586" lon="13.77814978400894"><ele>45.5</ele><time>2026-04-06T09:07:29Z</time></trkpt><trkpt lat="43.202037056966454" lon="13.77804228122503"><ele>47.666666666666664</ele><time>2026-04-06T09:07:31Z</time></trkpt><trkpt lat="43.20211626256466" lon="13.778013292314307"><ele>49.83333333333333</ele><time>2026-04-06T09:07:34Z</time></trkpt><trkpt lat="43.202194646828524" lon="13.777990299398883"><ele>52.0</ele><time>2026-04-06T09:07:37Z</time></trkpt><trkpt lat="43.202277125801146" lon="13.778005154186292"><ele>51.83333333333333</ele><time>2026-04-06T09:07:40Z</time></trkpt><trkpt lat="43.202355899144976" lon="13.778013737245045"><ele>51.666666666666664</ele><time>2026-04-06T09:07:43Z</time></trkpt><trkpt lat="43.20243861076679" lon="13.778017792006047"><ele>51.5</ele><time>2026-04-06T09:07:46Z</time></trkpt><trkpt lat="43.20251724903854" lon="13.778022667151836"><ele>51.33333333333333</ele><time>2026-04-06T09:07:49Z</time></trkpt><trkpt lat="43.20259406583667" lon="13.778004931848209"><ele>51.166666666666664</ele><time>2026-04-06T09:07:52Z</time></trkpt><trkpt lat="43.20266447823234" lon="13.777958270379655"><ele>51.0</ele><time>2026-04-06T09:07:55Z</time></trkpt><trkpt lat="43.20272025817778" lon="13.777882578647214"><ele>51.0</ele><time>2026-04-06T09:07:58Z</time></trkpt><trkpt lat="43.20276198960528" lon="13.777792338069194"><ele>51.0</ele><time>2026-04-06T09:08:01Z</time></trkpt><trkpt lat="43.20278355561689" lon="13.777695234905426"><ele>51.0</ele><time>2026-04-06T09:08:04Z</time></trkpt><trkpt lat="43.202774784190076" lon="13.777584314146912"><ele>51.0</ele><time>2026-04-06T09:08:07Z</time></trkpt><trkpt lat="43.20273834749969" lon="13.777480524557832"><ele>51.0</ele><time>2026-04-06T09:08:10Z</time></trkpt><trkpt lat="43.202700824855576" lon="13.77738970450547"><ele>51.0</ele><time>2026-04-06T09:08:13Z</time></trkpt><trkpt lat="43.202647188557044" lon="13.777314900647996"><ele>52.833333333333336</ele><time>2026-04-06T09:08:16Z</time></trkpt><trkpt lat="43.202581260855936" lon="13.777269538882923"><ele>54.66666666666667</ele><time>2026-04-06T09:08:19Z</time></trkpt><trkpt lat="43.202502323753265" lon="13.777247947089466"><ele>56.5</ele><time>2026-04-06T09:08:22Z</time></trkpt><trkpt lat="43.20242823445954" lon="13.777231527574882"><ele>58.333333333333336</ele><time>2026-04-06T09:08:25Z</time></trkpt><trkpt lat="43.20234636639461" lon="13.777228299032169"><ele>60.16666666666667</ele><time>2026-04-06T09:08:28Z</time></trkpt><trkpt lat="43.202261463541916" lon="13.777224729922812"><ele>62.0</ele><time>2026-04-06T09:08:31Z</time></trkpt><trkpt lat="43.20218202236038" lon="13.777209298247726"><ele>62.00000000000001</ele><time>2026-04-06T09:08:34Z</time></trkpt><trkpt lat="43.202100629019476" lon="13.77719621967963"><ele>62.0</ele><time>2026-04-06T09:08:37Z</time></trkpt><trkpt lat="43.20202085882255" lon="13.777185850002269"><ele>62.0</ele><time>2026-04-06T09:08:40Z</time></trkpt><trkpt lat="43.20194007991017" lon="13.77717287458557"><ele>62.0</ele><time>2026-04-06T09:08:43Z</time></trkpt><trkpt lat="43.201862292396264" lon="13.77715406184328"><ele>62.00000000000001</ele><time>2026-04-06T09:08:46Z</time></trkpt><trkpt lat="43.20178761005571" lon="13.77714654177055"><ele>62.0</ele><time>2026-04-06T09:08:49Z</time></trkpt><trkpt lat="43.2017148793017" lon="13.77713224326043"><ele>62.00000000000001</ele><time>2026-04-06T09:08:52Z</time></trkpt><trkpt lat="43.20163873856077" lon="13.777118653523296"><ele>62.0</ele><time>2026-04-06T09:08:55Z</time></trkpt><trkpt lat="43.20156356265911" lon="13.77710755746569"><ele>62.0</ele><time>2026-04-06T09:08:58Z</time></trkpt><trkpt lat="43.2014904064682" lon="13.777099480623592"><ele>62.0</ele><time>2026-04-06T09:09:01Z</time></trkpt><trkpt lat="43.201414931217506" lon="13.777093538962282"><ele>62.00000000000001</ele><time>2026-04-06T09:09:04Z</time></trkpt><trkpt lat="43.20133711574009" lon="13.777085032691026"><ele>62.0</ele><time>2026-04-06T09:09:07Z</time></trkpt><trkpt lat="43.20126523826678" lon="13.777072489611607"><ele>62.42857142857143</ele><time>2026-04-06T09:09:10Z</time></trkpt><trkpt lat="43.20119335681962" lon="13.77706761187782"><ele>62.85714285714286</ele><time>2026-04-06T09:09:13Z</time></trkpt><trkpt lat="43.20112159602446" lon="13.7770563005049"><ele>63.28571428571429</ele><time>2026-04-06T09:09:16Z</time></trkpt><trkpt lat="43.20105075904979" lon="13.777047909151786"><ele>63.71428571428572</ele><time>2026-04-06T09:09:19Z</time></trkpt><trkpt lat="43.20098199732552" lon="13.777044021420261"><ele>64.14285714285714</ele><time>2026-04-06T09:09:22Z</time></trkpt><trkpt lat="43.20091529287765" lon="13.77702494187233"><ele>64.57142857142858</ele><time>2026-04-06T09:09:25Z</time></trkpt><trkpt lat="43.20084675436549" lon="13.777016751949802"><ele>65.0</ele><time>2026-04-06T09:09:28Z</time></trkpt><trkpt lat="43.20077563583284" lon="13.777005501681035"><ele>65.00000000000001</ele><time>2026-04-06T09:09:31Z</time></trkpt><trkpt lat="43.20070310964276" lon="13.77700108811251"><ele>65.0</ele><time>2026-04-06T09:09:34Z</time></trkpt><trkpt lat="43.20063321376735" lon="13.77698617208965"><ele>65.0</ele><time>2026-04-06T09:09:37Z</time></trkpt><trkpt lat="43.20056127595739" lon="13.776983011229555"><ele>65.0</ele><time>2026-04-06T09:09:40Z</time></trkpt><trkpt lat="43.20049182313044" lon="13.77696736761429"><ele>65.0</ele><time>2026-04-06T09:09:43Z</time></trkpt><trkpt lat="43.20042484270055" lon="13.776957624050802"><ele>65.00000000000001</ele><time>2026-04-06T09:09:46Z</time></trkpt><trkpt lat="43.20035726587703" lon="13.776946958035175"><ele>65.0</ele><time>2026-04-06T09:09:49Z</time></trkpt><trkpt lat="43.20028713047366" lon="13.776933540639831"><ele>65.42857142857143</ele><time>2026-04-06T09:09:52Z</time></trkpt><trkpt lat="43.20021643344429" lon="13.776927165924182"><ele>65.85714285714286</ele><time>2026-04-06T09:09:55Z</time></trkpt><trkpt lat="43.20014780296379" lon="13.776916437863314"><ele>66.28571428571428</ele><time>2026-04-06T09:09:58Z</time></trkpt><trkpt lat="43.200075032375835" lon="13.776918718485769"><ele>66.71428571428572</ele><time>2026-04-06T09:10:01Z</time></trkpt><trkpt lat="43.200002699367055" lon="13.77691025973032"><ele>67.14285714285714</ele><time>2026-04-06T09:10:04Z</time></trkpt><trkpt lat="43.1999337563368" lon="13.776890217244052"><ele>67.57142857142857</ele><time>2026-04-06T09:10:07Z</time></trkpt><trkpt lat="43.19986423635774" lon="13.77688298769191"><ele>68.0</ele><time>2026-04-06T09:10:10Z</time></trkpt><trkpt lat="43.1997933012777" lon="13.776871963766895"><ele>68.71428571428571</ele><time>2026-04-06T09:10:13Z</time></trkpt><trkpt lat="43.19972502708867" lon="13.776857354989879"><ele>69.42857142857143</ele><time>2026-04-06T09:10:16Z</time></trkpt><trkpt lat="43.19965612959477" lon="13.776851116694077"><ele>70.14285714285714</ele><time>2026-04-06T09:10:19Z</time></trkpt><trkpt lat="43.1995845521084" lon="13.776836887661208"><ele>70.85714285714286</ele><time>2026-04-06T09:10:22Z</time></trkpt><trkpt lat="43.19951867241855" lon="13.77682048848335"><ele>71.57142857142857</ele><time>2026-04-06T09:10:25Z</time></trkpt><trkpt lat="43.19944700893572" lon="13.776817569308701"><ele>72.28571428571428</ele><time>2026-04-06T09:10:28Z</time></trkpt><trkpt lat="43.1993767106095" lon="13.776806833306933"><ele>73.0</ele><time>2026-04-06T09:10:31Z</time></trkpt><trkpt lat="43.19930958924509" lon="13.776798306512037"><ele>75.0</ele><time>2026-04-06T09:10:34Z</time></trkpt><trkpt lat="43.199239781476805" lon="13.776785747895644"><ele>77.0</ele><time>2026-04-06T09:10:37Z</time></trkpt><trkpt lat="43.199170095476866" lon="13.776784883074082"><ele>79.0</ele><time>2026-04-06T09:10:40Z</time></trkpt><trkpt lat="43.19910229844168" lon="13.77677915867732"><ele>81.0</ele><time>2026-04-06T09:10:43Z</time></trkpt><trkpt lat="43.19903306338411" lon="13.77677162545328"><ele>83.0</ele><time>2026-04-06T09:10:46Z</time></trkpt><trkpt lat="43.198966566728856" lon="13.776754688460143"><ele>85.0</ele><time>2026-04-06T09:10:49Z</time></trkpt><trkpt lat="43.19890093045499" lon="13.776746033534122"><ele>87.0</ele><time>2026-04-06T09:10:52Z</time></trkpt><trkpt lat="43.19883385367739" lon="13.776734469330895"><ele>87.0</ele><time>2026-04-06T09:10:55Z</time></trkpt><trkpt lat="43.198767016407956" lon="13.776723965890078"><ele>87.0</ele><time>2026-04-06T09:10:58Z</time></trkpt><trkpt lat="43.19869616461571" lon="13.77671964619799"><ele>87.0</ele><time>2026-04-06T09:11:01Z</time></trkpt><trkpt lat="43.19862650789625" lon="13.776700378899683"><ele>87.0</ele><time>2026-04-06T09:11:04Z</time></trkpt><trkpt lat="43.198556769129205" lon="13.776687087530746"><ele>87.0</ele><time>2026-04-06T09:11:07Z</time></trkpt><trkpt lat="43.198481491474546" lon="13.776678909334077"><ele>87.0</ele><time>2026-04-06T09:11:10Z</time></trkpt><trkpt lat="43.19841133352102" lon="13.776661016064196"><ele>87.0</ele><time>2026-04-06T09:11:13Z</time></trkpt><trkpt lat="43.1983410412763" lon="13.77663887443417"><ele>87.0</ele><time>2026-04-06T09:11:16Z</time></trkpt><trkpt lat="43.19827419420822" lon="13.776603175258353"><ele>87.0</ele><time>2026-04-06T09:11:19Z</time></trkpt><trkpt lat="43.19821195149285" lon="13.7765619063512"><ele>87.0</ele><time>2026-04-06T09:11:22Z</time></trkpt><trkpt lat="43.19815799624515" lon="13.776501677752803"><ele>87.0</ele><time>2026-04-06T09:11:25Z</time></trkpt><trkpt lat="43.19810582155628" lon="13.776442658772114"><ele>87.0</ele><time>2026-04-06T09:11:28Z</time></trkpt><trkpt lat="43.198063492094704" lon="13.776372002757835"><ele>87.0</ele><time>2026-04-06T09:11:31Z</time></trkpt><trkpt lat="43.19803485650043" lon="13.776282509428913"><ele>87.0</ele><time>2026-04-06T09:11:34Z</time></trkpt><trkpt lat="43.19802066247988" lon="13.776191911539625"><ele>86.42857142857143</ele><time>2026-04-06T09:11:37Z</time></trkpt><trkpt lat="43.198008060166096" lon="13.77609483696429"><ele>85.85714285714286</ele><time>2026-04-06T09:11:40Z</time></trkpt><trkpt lat="43.198015152166384" lon="13.776004099805935"><ele>85.28571428571428</ele><time>2026-04-06T09:11:43Z</time></trkpt><trkpt lat="43.19802203224229" lon="13.775913832502765"><ele>84.71428571428572</ele><time>2026-04-06T09:11:46Z</time></trkpt><trkpt lat="43.1980381896703" lon="13.77582553383937"><ele>84.14285714285715</ele><time>2026-04-06T09:11:49Z</time></trkpt><trkpt lat="43.198049680025456" lon="13.775733024265696"><ele>83.57142857142857</ele><time>2026-04-06T09:11:52Z</time></trkpt><trkpt lat="43.19806348647259" lon="13.775637360814605"><ele>83.0</ele><time>2026-04-06T09:11:55Z</time></trkpt><trkpt lat="43.198078519794464" lon="13.775539874491653"><ele>83.0</ele><time>2026-04-06T09:11:58Z</time></trkpt><trkpt lat="43.1980958012289" lon="13.775444837094797"><ele>83.0</ele><time>2026-04-06T09:12:01Z</time></trkpt><trkpt lat="43.1981053271589" lon="13.775349669409788"><ele>83.0</ele><time>2026-04-06T09:12:04Z</time></trkpt><trkpt lat="43.198112943994964" lon="13.775248879167975"><ele>83.0</ele><time>2026-04-06T09:12:07Z</time></trkpt><trkpt lat="43.19811959852622" lon="13.775158187442003"><ele>83.0</ele><time>2026-04-06T09:12:10Z</time></trkpt><trkpt lat="43.19811661673935" lon="13.775057298414081"><ele>83.0</ele><time>2026-04-06T09:12:13Z</time></trkpt><trkpt lat="43.19810805473158" lon="13.774961418765567"><ele>83.0</ele><time>2026-04-06T09:12:16Z</time></trkpt><trkpt lat="43.19809076322086" lon="13.774862619016103"><ele>83.71428571428571</ele><time>2026-04-06T09:12:19Z</time></trkpt><trkpt lat="43.19808356316689" lon="13.774770338008459"><ele>84.42857142857143</ele><time>2026-04-06T09:12:22Z</time></trkpt><trkpt lat="43.19806879209611" lon="13.774675380287894"><ele>85.14285714285714</ele><time>2026-04-06T09:12:25Z</time></trkpt><trkpt lat="43.198050410786884" lon="13.774584152528952"><ele>85.85714285714286</ele><time>2026-04-06T09:12:28Z</time></trkpt><trkpt lat="43.19803209888814" lon="13.774492724434607"><ele>86.57142857142857</ele><time>2026-04-06T09:12:31Z</time></trkpt><trkpt lat="43.19800199629648" lon="13.774401574108575"><ele>87.28571428571429</ele><time>2026-04-06T09:12:34Z</time></trkpt><trkpt lat="43.19797592349973" lon="13.774313290427395"><ele>88.0</ele><time>2026-04-06T09:12:37Z</time></trkpt><trkpt lat="43.19795564105698" lon="13.774221353289498"><ele>89.14285714285714</ele><time>2026-04-06T09:12:40Z</time></trkpt><trkpt lat="43.19792426513724" lon="13.774130836777157"><ele>90.28571428571428</ele><time>2026-04-06T09:12:43Z</time></trkpt><trkpt lat="43.19789837210261" lon="13.774039776023956"><ele>91.42857142857142</ele><time>2026-04-06T09:12:46Z</time></trkpt><trkpt lat="43.197864540589464" lon="13.773951313365231"><ele>92.57142857142857</ele><time>2026-04-06T09:12:49Z</time></trkpt><trkpt lat="43.1978265361519" lon="13.773864044574056"><ele>93.71428571428571</ele><time>2026-04-06T09:12:52Z</time></trkpt><trkpt lat="43.19779095095431" lon="13.77376499895395"><ele>94.85714285714285</ele><time>2026-04-06T09:12:55Z</time></trkpt><trkpt lat="43.197768196390356" lon="13.773677962752453"><ele>96.0</ele><time>2026-04-06T09:12:58Z</time></trkpt><trkpt lat="43.19773409304179" lon="13.773586990916389"><ele>97.57142857142857</ele><time>2026-04-06T09:13:01Z</time></trkpt><trkpt lat="43.19770911909553" lon="13.773500567296116"><ele>99.14285714285714</ele><time>2026-04-06T09:13:04Z</time></trkpt><trkpt lat="43.19768388003884" lon="13.773412351104566"><ele>100.71428571428572</ele><time>2026-04-06T09:13:07Z</time></trkpt><trkpt lat="43.19765860676417" lon="13.773328429479518"><ele>102.28571428571428</ele><time>2026-04-06T09:13:10Z</time></trkpt><trkpt lat="43.19763512328926" lon="13.77324095623238"><ele>103.85714285714286</ele><time>2026-04-06T09:13:13Z</time></trkpt><trkpt lat="43.19761474082263" lon="13.773153920651586"><ele>105.42857142857143</ele><time>2026-04-06T09:13:16Z</time></trkpt><trkpt lat="43.19759046276856" lon="13.773072202296774"><ele>107.0</ele><time>2026-04-06T09:13:19Z</time></trkpt><trkpt lat="43.1975685875704" lon="13.77298174414117"><ele>107.00000000000001</ele><time>2026-04-06T09:13:22Z</time></trkpt><trkpt lat="43.197545868378626" lon="13.77289066875505"><ele>107.0</ele><time>2026-04-06T09:13:25Z</time></trkpt><trkpt lat="43.19751932533847" lon="13.77280063109763"><ele>107.0</ele><time>2026-04-06T09:13:28Z</time></trkpt><trkpt lat="43.19749456898266" lon="13.772719918751466"><ele>107.0</ele><time>2026-04-06T09:13:31Z</time></trkpt><trkpt lat="43.197469068871605" lon="13.77262933600921"><ele>107.0</ele><time>2026-04-06T09:13:34Z</time></trkpt><trkpt lat="43.19744363298889" lon="13.772549426993729"><ele>107.00000000000001</ele><time>2026-04-06T09:13:37Z</time></trkpt><trkpt lat="43.1974118807609" lon="13.77246068014036"><ele>107.0</ele><time>2026-04-06T09:13:40Z</time></trkpt><trkpt lat="43.19739307224096" lon="13.772373021081588"><ele>106.42857142857143</ele><time>2026-04-06T09:13:43Z</time></trkpt><trkpt lat="43.19736146364826" lon="13.772286296826527"><ele>105.85714285714286</ele><time>2026-04-06T09:13:46Z</time></trkpt><trkpt lat="43.197338891676594" lon="13.772195697078114"><ele>105.28571428571428</ele><time>2026-04-06T09:13:49Z</time></trkpt><trkpt lat="43.19731522209401" lon="13.77210694888216"><ele>104.71428571428572</ele><time>2026-04-06T09:13:52Z</time></trkpt><trkpt lat="43.19728652347738" lon="13.772025668626217"><ele>104.14285714285714</ele><time>2026-04-06T09:13:55Z</time></trkpt><trkpt lat="43.1972643575631" lon="13.771939844210328"><ele>103.57142857142857</ele><time>2026-04-06T09:13:58Z</time></trkpt><trkpt lat="43.19722917686859" lon="13.771845439527002"><ele>103.0</ele><time>2026-04-06T09:14:01Z</time></trkpt><trkpt lat="43.19720629523393" lon="13.771751046171355"><ele>104.57142857142856</ele><time>2026-04-06T09:14:04Z</time></trkpt><trkpt lat="43.19717781511748" lon="13.771658842502687"><ele>106.14285714285714</ele><time>2026-04-06T09:14:07Z</time></trkpt><trkpt lat="43.197145424575304" lon="13.771569290478086"><ele>107.71428571428571</ele><time>2026-04-06T09:14:10Z</time></trkpt><trkpt lat="43.19712012155281" lon="13.771477309396978"><ele>109.28571428571428</ele><time>2026-04-06T09:14:13Z</time></trkpt><trkpt lat="43.19709490140282" lon="13.77138677789498"><ele>110.85714285714285</ele><time>2026-04-06T09:14:16Z</time></trkpt><trkpt lat="43.19706309982288" lon="13.771292121929974"><ele>112.42857142857142</ele><time>2026-04-06T09:14:19Z</time></trkpt><trkpt lat="43.19703804741708" lon="13.771199433831399"><ele>114.0</ele><time>2026-04-06T09:14:22Z</time></trkpt><trkpt lat="43.19700557692985" lon="13.771107853997131"><ele>115.0</ele><time>2026-04-06T09:14:25Z</time></trkpt><trkpt lat="43.196976392525634" lon="13.771015827940102"><ele>115.99999999999999</ele><time>2026-04-06T09:14:28Z</time></trkpt><trkpt lat="43.19694842660833" lon="13.770921755989374"><ele>117.0</ele><time>2026-04-06T09:14:31Z</time></trkpt><trkpt lat="43.19692179257245" lon="13.770829837551801"><ele>118.0</ele><time>2026-04-06T09:14:34Z</time></trkpt><trkpt lat="43.19689739082215" lon="13.770739142276451"><ele>118.99999999999999</ele><time>2026-04-06T09:14:37Z</time></trkpt><trkpt lat="43.19687902387432" lon="13.7706490691661"><ele>120.0</ele><time>2026-04-06T09:14:40Z</time></trkpt><trkpt lat="43.19686342567451" lon="13.770560702526296"><ele>121.0</ele><time>2026-04-06T09:14:43Z</time></trkpt><trkpt lat="43.19684977734355" lon="13.770476024809424"><ele>121.0</ele><time>2026-04-06T09:14:46Z</time></trkpt><trkpt lat="43.19682835078289" lon="13.7703892203366"><ele>121.0</ele><time>2026-04-06T09:14:49Z</time></trkpt><trkpt lat="43.19681279553604" lon="13.770301521534524"><ele>121.0</ele><time>2026-04-06T09:14:52Z</time></trkpt><trkpt lat="43.196796922326826" lon="13.77020441174883"><ele>121.0</ele><time>2026-04-06T09:14:56Z</time></trkpt></trkseg></trk></gpx>